Time,TemperatureF,DewpointF,PressureIn,WindDirection,WindDirectionDegrees,WindSpeedMPH,WindSpeedGustMPH,Humidity,HourlyPrecipIn,Conditions,Clouds,dailyrainin,SoftwareType,DateUTC
2013-08-17 00:13:00,55.0,-99.9,-100.00,ESE,110,0.0,0.0,-999,0.00,,,-99.99,,2013-08-17 05:13:00,
2013-08-17 00:22:00,54.0,54.0,-100.00,NW,315,0.0,1.0,99,0.00,,,-99.99,,2013-08-17 05:22:00,
2013-08-17 00:42:00,54.0,-99.9,-100.00,WNW,290,0.0,1.0,-999,0.00,,,-99.99,,2013-08-17 05:42:00,
2013-08-17 01:12:00,55.0,55.0,-100.00,NNW,330,2.0,3.0,99,0.00,,,-99.99,,2013-08-17 06:12:00,
2013-08-17 01:21:00,54.0,-99.9,-100.00,NW,305,0.0,4.0,-999,0.00,,,-99.99,,2013-08-17 06:21:00,
2013-08-17 02:21:00,54.0,54.0,-100.00,North,355,2.0,2.0,99,0.00,,,-99.99,,2013-08-17 07:21:00,
2013-08-17 03:21:00,52.0,52.0,-100.00,NW,315,0.0,0.0,99,0.00,,,-99.99,,2013-08-17 08:21:00,
2013-08-17 03:41:00,51.0,51.0,-100.00,NW,310,0.0,0.0,99,0.00,,,-99.99,,2013-08-17 08:41:00,
2013-08-17 03:52:00,51.0,51.0,-100.00,NW,310,0.0,0.0,99,0.00,,,-99.99,,2013-08-17 08:52:00,
2013-08-17 04:01:00,51.0,51.0,-100.00,NW,310,0.0,0.0,99,0.00,,,-99.99,,2013-08-17 09:01:00,
2013-08-17 04:11:00,51.0,51.0,-100.00,NW,310,0.0,0.0,99,0.00,,,-99.99,,2013-08-17 09:11:00,
2013-08-17 04:22:00,50.0,-99.9,-100.00,North,-999,-999.0,-999.0,-999,0.00,,,-99.99,,2013-08-17 09:22:00,
2013-08-17 05:42:00,50.0,50.0,-100.00,NNE,15,0.0,0.0,99,0.00,,,-99.99,,2013-08-17 10:42:00,
2013-08-17 06:22:00,50.0,-99.9,-100.00,North,0,1.0,2.0,-999,0.00,,,-99.99,,2013-08-17 11:22:00,
2013-08-17 07:42:00,54.0,54.0,-100.00,North,5,1.0,2.0,99,0.00,,,-99.99,,2013-08-17 12:42:00,
2013-08-17 20:11:00,72.0,-99.9,-100.00,ESE,110,6.0,8.0,-999,0.00,,,-99.99,,2013-08-18 01:11:00,
2013-08-17 21:42:00,65.0,65.0,-100.00,ESE,105,4.0,6.0,99,0.00,,,-99.99,,2013-08-18 02:42:00,
2013-08-17 23:02:00,-999.0,-99.9,-100.00,ESE,120,0.0,1.0,-999,0.00,,,-99.99,,2013-08-18 04:02:00,
2013-08-17 23:12:00,58.0,58.0,-100.00,ESE,120,0.0,1.0,99,0.00,,,-99.99,,2013-08-18 04:12:00,
2013-08-17 23:23:00,58.0,58.0,-100.00,West,265,0.0,2.0,99,0.00,,,-99.99,,2013-08-18 04:23:00,